Time;durP1;ratioP1;P1;durP2;ratioP2;P2;SDS_P1;SDS_P2;PMS_P1;PMS_P2;Temp;Humidity;BMP_temperature;BMP_pressure;BME280_temperature;BME280_humidity;BME280_pressure;Samples;Min_cycle;Max_cycle;Signal;HPM_P1;HPM_P2
2023/04/25 00:08:20;;;;;;;6.80;3.97;;;8.50;1.00;;;;;;5075975;23;20051;-78
2023/04/25 00:10:46;;;;;;;5.07;4.10;;;8.50;1.00;;;;;;4955178;29;20387;-78
2023/04/25 00:13:13;;;;;;;6.85;4.40;;;8.50;1.00;;;;;;4953200;29;20039;-80
2023/04/25 00:15:41;;;;;;;8.32;5.32;;;8.50;1.00;;;;;;4950187;29;20039;-79
2023/04/25 00:18:07;;;;;;;7.03;4.78;;;8.60;1.00;;;;;;4948282;29;20060;-79
2023/04/25 00:20:35;;;;;;;7.88;5.00;;;8.50;1.00;;;;;;4951576;29;20035;-78
2023/04/25 00:23:01;;;;;;;7.68;5.25;;;8.50;1.00;;;;;;4951821;29;20047;-78
2023/04/25 00:25:27;;;;;;;8.18;5.60;;;8.50;99.90;;;;;;4951460;29;20043;-78
2023/04/25 00:27:54;;;;;;;7.45;5.22;;;8.50;1.00;;;;;;4952008;29;20032;-78
2023/04/25 00:30:20;;;;;;;8.65;5.28;;;8.50;1.00;;;;;;4935504;29;20043;-78
2023/04/25 00:32:46;;;;;;;7.63;5.00;;;8.50;1.00;;;;;;4949667;29;20456;-78
2023/04/25 00:35:13;;;;;;;8.57;5.50;;;8.50;1.00;;;;;;4948874;29;20490;-79
2023/04/25 00:37:40;;;;;;;6.18;4.65;;;8.50;1.00;;;;;;4935229;29;20050;-78
2023/04/25 00:40:07;;;;;;;6.55;4.95;;;8.60;99.90;;;;;;4964942;28;20051;-78
2023/04/25 00:42:36;;;;;;;9.30;5.38;;;8.60;99.90;;;;;;4935380;29;20043;-79
2023/04/25 00:45:06;;;;;;;7.82;5.45;;;8.60;1.00;;;;;;4935793;29;20039;-79
2023/04/25 00:47:32;;;;;;;8.75;5.68;;;8.60;1.00;;;;;;4938849;29;20050;-79
2023/04/25 00:49:59;;;;;;;8.60;5.22;;;8.50;1.00;;;;;;4937846;29;20046;-79
2023/04/25 00:52:25;;;;;;;6.88;5.40;;;8.50;1.00;;;;;;4954417;29;20039;-79
2023/04/25 00:54:51;;;;;;;7.38;4.68;;;8.40;1.00;;;;;;4932061;29;20307;-78
2023/04/25 00:57:17;;;;;;;8.13;5.22;;;8.50;1.00;;;;;;4954817;29;20094;-79
2023/04/25 00:59:46;;;;;;;8.57;5.32;;;8.50;1.00;;;;;;4936377;29;20052;-79
2023/04/25 01:02:12;;;;;;;9.80;6.10;;;8.40;1.00;;;;;;4954636;29;20412;-79
2023/04/25 01:04:39;;;;;;;7.97;5.22;;;8.30;1.00;;;;;;4936847;29;20039;-79
2023/04/25 01:07:05;;;;;;;8.82;6.20;;;8.20;1.00;;;;;;4938077;29;20062;-79
2023/04/25 01:09:34;;;;;;;8.88;6.05;;;8.20;1.00;;;;;;4952502;29;20039;-79
2023/04/25 01:12:00;;;;;;;8.15;5.80;;;8.10;1.00;;;;;;4938791;29;20484;-79
2023/04/25 01:14:27;;;;;;;11.80;6.85;;;8.10;1.00;;;;;;4937764;29;20035;-79
2023/04/25 01:16:54;;;;;;;10.90;6.35;;;8.10;1.00;;;;;;4938229;29;20036;-79
2023/04/25 01:19:20;;;;;;;10.15;7.68;;;8.10;1.00;;;;;;4934604;29;20489;-79
2023/04/25 01:21:47;;;;;;;11.23;8.35;;;8.20;1.00;;;;;;4936318;29;20043;-81
2023/04/25 01:24:14;;;;;;;10.50;6.32;;;8.20;1.00;;;;;;4968526;28;20381;-79
2023/04/25 01:26:44;;;;;;;11.90;7.30;;;8.20;1.00;;;;;;4953666;29;20035;-78
2023/04/25 01:29:11;;;;;;;10.68;7.93;;;8.20;1.00;;;;;;4950917;29;20035;-79
2023/04/25 01:31:38;;;;;;;14.05;7.35;;;8.20;1.00;;;;;;4954339;29;20035;-79
2023/04/25 01:34:05;;;;;;;9.95;7.30;;;8.10;1.00;;;;;;4936502;29;20051;-79
2023/04/25 01:36:32;;;;;;;12.13;7.45;;;8.10;1.00;;;;;;4950732;29;20392;-79
2023/04/25 01:38:58;;;;;;;11.20;7.90;;;8.10;1.00;;;;;;4954227;29;20028;-79
2023/04/25 01:41:25;;;;;;;10.18;6.47;;;8.10;1.00;;;;;;4936500;29;20043;-84
2023/04/25 01:43:51;;;;;;;8.70;5.43;;;8.20;1.00;;;;;;4935828;29;20420;-79
2023/04/25 01:46:17;;;;;;;7.60;5.32;;;8.20;1.00;;;;;;4952118;29;20376;-79
2023/04/25 01:48:44;;;;;;;8.90;6.20;;;8.20;1.00;;;;;;4953264;29;20275;-79
2023/04/25 01:51:11;;;;;;;10.80;6.28;;;8.20;1.00;;;;;;4936742;29;20039;-79
2023/04/25 01:53:38;;;;;;;10.25;6.43;;;8.20;1.00;;;;;;4952215;28;20050;-79
2023/04/25 01:56:05;;;;;;;9.32;5.50;;;8.20;1.00;;;;;;4936461;29;20032;-78
2023/04/25 01:58:34;;;;;;;9.55;5.85;;;8.20;1.00;;;;;;4968178;28;20043;-78
2023/04/25 02:01:03;;;;;;;7.50;5.45;;;8.20;1.00;;;;;;4955559;29;20042;-79
2023/04/25 02:03:36;;;;;;;9.50;6.90;;;8.10;1.00;;;;;;4933599;29;20043;-78
2023/04/25 02:06:06;;;;;;;9.25;6.10;;;8.10;1.00;;;;;;4936213;29;20047;-78
2023/04/25 02:08:35;;;;;;;10.35;6.93;;;8.10;1.00;;;;;;4931497;29;20044;-78
2023/04/25 02:11:03;;;;;;;10.35;7.00;;;8.10;1.00;;;;;;4933957;29;20412;-78
2023/04/25 02:13:35;;;;;;;10.95;5.85;;;8.10;1.00;;;;;;4932127;29;20484;-78
2023/04/25 02:16:36;;;;;;;9.80;6.68;;;8.00;1.00;;;;;;4918785;29;20050;-78
2023/04/25 02:19:03;;;;;;;11.73;7.07;;;7.90;1.00;;;;;;4932133;29;20508;-79
2023/04/25 02:21:30;;;;;;;10.82;7.32;;;7.90;1.00;;;;;;4932705;29;20055;-78
2023/04/25 02:23:57;;;;;;;11.88;7.25;;;7.90;1.00;;;;;;4931648;29;20055;-78
2023/04/25 02:26:24;;;;;;;12.20;8.43;;;7.90;1.00;;;;;;4931431;29;20408;-78
2023/04/25 02:28:51;;;;;;;12.48;8.90;;;7.90;1.00;;;;;;4933979;29;20031;-78
2023/04/25 02:31:19;;;;;;;12.73;9.20;;;7.90;1.00;;;;;;4933554;29;20044;-78
2023/04/25 02:33:45;;;;;;;13.75;8.73;;;8.00;1.00;;;;;;4922840;29;20322;-78
2023/04/25 02:36:12;;;;;;;11.98;8.55;;;8.00;1.00;;;;;;4932198;29;20474;-78
2023/04/25 02:38:38;;;;;;;15.27;10.48;;;8.00;1.00;;;;;;4934845;29;20484;-79
2023/04/25 02:41:05;;;;;;;12.77;8.77;;;8.00;1.00;;;;;;4932518;29;20031;-78
2023/04/25 02:43:31;;;;;;;18.08;11.25;;;8.00;1.00;;;;;;4932372;29;20036;-78
2023/04/25 02:45:57;;;;;;;17.20;11.35;;;8.10;1.00;;;;;;4931985;29;20035;-78
2023/04/25 02:48:23;;;;;;;15.52;10.90;;;8.10;1.00;;;;;;4933510;29;20389;-78
2023/04/25 02:50:49;;;;;;;16.05;9.88;;;8.10;1.00;;;;;;4933000;29;20382;-78
2023/04/25 02:53:15;;;;;;;16.48;11.73;;;8.10;1.00;;;;;;4933822;29;20054;-78
2023/04/25 02:55:47;;;;;;;21.13;11.70;;;8.10;1.00;;;;;;4928556;29;20039;-79
2023/04/25 02:58:13;;;;;;;13.60;10.10;;;8.10;1.00;;;;;;4926829;29;20382;-78
2023/04/25 03:00:44;;;;;;;14.95;10.82;;;8.20;1.00;;;;;;4931405;29;20054;-78
2023/04/25 03:03:10;;;;;;;15.45;11.85;;;8.20;1.00;;;;;;4931882;29;20054;-77
2023/04/25 03:05:37;;;;;;;15.25;11.05;;;8.10;1.00;;;;;;4931777;29;20453;-78
2023/04/25 03:08:03;;;;;;;16.17;11.02;;;8.10;1.00;;;;;;4927538;29;20048;-79
2023/04/25 03:10:31;;;;;;;17.42;12.13;;;8.10;1.00;;;;;;4928811;29;20044;-78
2023/04/25 03:13:02;;;;;;;17.58;12.07;;;8.10;1.00;;;;;;4918160;29;20043;-78
2023/04/25 03:15:28;;;;;;;19.23;12.85;;;8.10;1.00;;;;;;4932386;29;20051;-80
2023/04/25 03:17:54;;;;;;;16.75;11.38;;;8.20;1.00;;;;;;4917555;29;20365;-79
2023/04/25 03:20:20;;;;;;;15.13;10.90;;;8.10;1.00;;;;;;4932169;29;20385;-78
2023/04/25 03:22:47;;;;;;;17.05;11.32;;;8.00;1.00;;;;;;4932567;29;20294;-78
2023/04/25 03:25:13;;;;;;;17.92;11.48;;;8.00;1.00;;;;;;4931409;29;20039;-78
2023/04/25 03:27:40;;;;;;;16.55;10.75;;;8.00;1.00;;;;;;4932273;29;20040;-78
2023/04/25 03:30:07;;;;;;;18.20;11.95;;;8.00;3.40;;;;;;4933182;29;20404;-78
2023/04/25 03:32:35;;;;;;;19.15;12.45;;;8.00;9.10;;;;;;4917219;29;20051;-79
2023/04/25 03:35:02;;;;;;;18.13;13.43;;;8.00;1.00;;;;;;4932151;29;20047;-79
2023/04/25 03:37:28;;;;;;;20.70;13.27;;;8.00;1.00;;;;;;4932292;29;20151;-84
2023/04/25 03:39:54;;;;;;;17.20;12.60;;;8.00;1.00;;;;;;4931724;29;20043;-78
2023/04/25 03:42:23;;;;;;;20.90;12.13;;;8.00;1.00;;;;;;4931997;29;20055;-78
2023/04/25 03:44:51;;;;;;;15.77;10.57;;;8.00;1.00;;;;;;4921374;29;20051;-78
2023/04/25 03:47:17;;;;;;;16.05;11.35;;;8.10;1.00;;;;;;4931367;29;20420;-78
2023/04/25 03:49:44;;;;;;;19.05;10.98;;;8.10;1.00;;;;;;4932646;29;20488;-78
2023/04/25 03:52:10;;;;;;;16.30;11.55;;;8.10;1.00;;;;;;4932940;29;20048;-77
2023/04/25 03:54:39;;;;;;;15.38;10.65;;;8.10;1.00;;;;;;4945431;28;20047;-79
2023/04/25 03:57:18;;;;;;;18.40;10.38;;;8.10;1.00;;;;;;4931955;29;20043;-77
2023/04/25 03:59:44;;;;;;;15.75;10.75;;;8.10;1.00;;;;;;4932391;29;20036;-79
2023/04/25 04:02:13;;;;;;;14.57;10.07;;;8.10;1.00;;;;;;4927545;29;20055;-77
2023/04/25 04:04:40;;;;;;;18.27;9.77;;;8.10;1.00;;;;;;4945773;29;20047;-83
2023/04/25 04:07:06;;;;;;;13.23;8.93;;;8.10;1.00;;;;;;4929252;29;20044;-76
2023/04/25 04:09:39;;;;;;;16.00;10.45;;;8.00;1.00;;;;;;4930293;29;20052;-76
2023/04/25 04:12:10;;;;;;;15.50;11.43;;;8.00;1.00;;;;;;4916407;29;20066;-77
2023/04/25 04:14:38;;;;;;;13.20;8.88;;;8.00;1.00;;;;;;4915581;29;20288;-80
2023/04/25 04:17:05;;;;;;;15.15;10.27;;;8.10;1.00;;;;;;4918628;29;20373;-77
2023/04/25 04:19:32;;;;;;;17.27;10.35;;;8.10;1.00;;;;;;4905656;29;20044;-77
2023/04/25 04:22:09;;;;;;;16.15;11.52;;;8.00;1.00;;;;;;4920234;29;20385;-77
2023/04/25 04:24:36;;;;;;;17.40;10.75;;;8.00;1.00;;;;;;4920018;29;20043;-78
2023/04/25 04:27:06;;;;;;;13.40;10.05;;;8.00;1.00;;;;;;4918253;29;20048;-79
2023/04/25 04:29:37;;;;;;;12.95;9.85;;;8.00;1.00;;;;;;4919863;29;20050;-79
2023/04/25 04:32:38;;;;;;;12.73;9.52;;;8.00;1.00;;;;;;4924991;29;20050;-79
2023/04/25 04:35:06;;;;;;;15.20;10.98;;;7.90;1.00;;;;;;4933741;29;20043;-79
2023/04/25 04:37:33;;;;;;;13.90;10.18;;;8.00;1.00;;;;;;4919842;29;20060;-78
2023/04/25 04:40:05;;;;;;;14.23;10.02;;;7.90;1.00;;;;;;4920143;29;20048;-78
2023/04/25 04:42:53;;;;;;;16.02;10.63;;;8.00;1.00;;;;;;4932328;29;20057;-79
2023/04/25 04:45:28;;;;;;;18.08;10.93;;;7.90;1.00;;;;;;4935258;29;20051;-80
2023/04/25 04:48:14;;;;;;;15.35;10.35;;;7.90;1.00;;;;;;4901096;29;20055;-80
2023/04/25 04:50:54;;;;;;;18.15;12.57;;;7.90;1.00;;;;;;4919751;29;20044;-80
2023/04/25 04:53:42;;;;;;;19.15;12.80;;;8.00;1.00;;;;;;4932588;29;20547;-79
2023/04/25 04:56:23;;;;;;;17.17;12.15;;;8.00;2.60;;;;;;4916411;29;20032;-79
2023/04/25 04:58:50;;;;;;;20.13;12.90;;;8.00;7.80;;;;;;4936343;29;20047;-80
2023/04/25 05:01:30;;;;;;;18.30;12.43;;;8.00;9.10;;;;;;4915180;29;20048;-80
2023/04/25 05:04:16;;;;;;;15.60;12.18;;;7.90;7.60;;;;;;4918567;29;20044;-80
2023/04/25 05:07:02;;;;;;;20.50;13.05;;;8.00;4.20;;;;;;4906470;29;20052;-81
2023/04/25 05:09:46;;;;;;;22.90;15.20;;;8.00;4.80;;;;;;4951695;28;20051;-80
2023/04/25 05:12:34;;;;;;;21.00;13.13;;;8.00;2.10;;;;;;4921125;29;20047;-81
2023/04/25 05:15:20;;;;;;;19.73;12.90;;;8.00;1.00;;;;;;4919733;29;20035;-81
2023/04/25 05:18:05;;;;;;;21.95;13.65;;;8.00;1.00;;;;;;4933012;29;20051;-80
2023/04/25 05:20:41;;;;;;;18.88;12.32;;;8.10;1.00;;;;;;4932711;29;20051;-80
2023/04/25 05:23:27;;;;;;;20.75;13.43;;;8.10;1.00;;;;;;4942974;29;20066;-79
2023/04/25 05:26:03;;;;;;;20.98;13.35;;;8.10;1.00;;;;;;4927510;29;20048;-79
2023/04/25 05:28:52;;;;;;;16.98;11.82;;;8.20;1.00;;;;;;4906158;29;20396;-79
2023/04/25 05:31:37;;;;;;;17.17;11.40;;;8.20;1.00;;;;;;4932402;29;20047;-79
2023/04/25 05:34:13;;;;;;;18.63;13.43;;;8.20;1.00;;;;;;4956045;29;20047;-79
2023/04/25 05:36:48;;;;;;;19.67;12.05;;;8.30;1.00;;;;;;4947460;29;20060;-78
2023/04/25 05:39:18;;;;;;;21.25;11.98;;;8.30;1.00;;;;;;4920845;29;20055;-78
2023/04/25 05:42:10;;;;;;;20.85;12.15;;;8.40;1.00;;;;;;4938737;29;20381;-78
2023/04/25 05:44:59;;;;;;;15.48;10.93;;;8.30;1.00;;;;;;4914310;29;20048;-78
2023/04/25 05:47:49;;;;;;;17.15;10.60;;;8.30;1.00;;;;;;4898253;29;20046;-78
2023/04/25 05:50:23;;;;;;;16.02;10.95;;;8.50;1.00;;;;;;4909344;29;20059;-81
2023/04/25 05:53:02;;;;;;;19.38;12.23;;;8.50;1.00;;;;;;4946532;29;20052;-83
2023/04/25 05:55:38;;;;;;;13.93;9.40;;;8.50;1.00;;;;;;4917412;29;20048;-83
2023/04/25 05:58:19;;;;;;;14.32;9.48;;;8.60;1.00;;;;;;4918290;29;20489;-82
2023/04/25 06:00:46;;;;;;;15.07;10.55;;;8.60;1.00;;;;;;4909225;29;20055;-80
2023/04/25 06:03:14;;;;;;;15.57;9.95;;;8.50;1.00;;;;;;4940562;29;20040;-80
2023/04/25 06:05:44;;;;;;;16.58;9.32;;;8.60;1.00;;;;;;4925733;29;20047;-81
2023/04/25 06:08:11;;;;;;;13.40;9.35;;;8.60;1.00;;;;;;4936978;29;20476;-81
2023/04/25 06:10:38;;;;;;;14.68;10.00;;;8.60;1.00;;;;;;4962937;28;20043;-79
2023/04/25 06:13:05;;;;;;;13.10;9.57;;;8.50;1.00;;;;;;4954682;29;20027;-81
2023/04/25 06:15:34;;;;;;;12.07;7.90;;;8.50;1.00;;;;;;4944032;29;20035;-79
2023/04/25 06:18:01;;;;;;;13.50;8.00;;;8.50;1.00;;;;;;4958645;28;20040;-78
2023/04/25 06:20:28;;;;;;;12.65;8.20;;;8.40;1.00;;;;;;4952342;29;20456;-79
2023/04/25 06:22:57;;;;;;;9.80;7.28;;;8.30;1.00;;;;;;4942858;29;20043;-79
2023/04/25 06:25:43;;;;;;;11.60;7.72;;;8.10;1.00;;;;;;4952424;28;20046;-78
2023/04/25 06:28:09;;;;;;;10.90;7.18;;;8.10;1.00;;;;;;4954352;29;20039;-78
2023/04/25 06:30:36;;;;;;;12.65;7.40;;;8.00;1.00;;;;;;4927505;29;20042;-81
2023/04/25 06:33:08;;;;;;;10.80;7.55;;;8.00;1.00;;;;;;4947156;29;20043;-78
2023/04/25 06:35:35;;;;;;;12.00;7.47;;;8.00;1.00;;;;;;4941851;29;20043;-80
2023/04/25 06:38:01;;;;;;;10.55;7.35;;;8.00;1.00;;;;;;4946115;29;20059;-78
2023/04/25 06:40:29;;;;;;;13.05;8.20;;;8.10;1.00;;;;;;4935760;29;20035;-79
2023/04/25 06:42:56;;;;;;;11.70;7.05;;;8.00;1.00;;;;;;4922888;29;20043;-79
2023/04/25 06:45:54;;;;;;;12.38;7.57;;;8.20;1.00;;;;;;4912590;29;20468;-81
2023/04/25 06:48:22;;;;;;;13.35;7.70;;;8.20;1.00;;;;;;4953268;29;20039;-80
2023/04/25 06:50:48;;;;;;;11.50;7.05;;;8.30;1.00;;;;;;4937071;29;20043;-78
2023/04/25 06:53:15;;;;;;;16.25;9.07;;;8.40;1.00;;;;;;4956074;29;20036;-79
2023/04/25 06:55:44;;;;;;;10.60;6.68;;;8.30;99.90;;;;;;4932868;29;20043;-78
2023/04/25 06:58:18;;;;;;;11.25;6.28;;;8.30;99.90;;;;;;4922100;29;20476;-78
2023/04/25 07:00:56;;;;;;;12.77;6.82;;;8.20;99.90;;;;;;4932828;29;20481;-78
2023/04/25 07:03:25;;;;;;;15.85;8.00;;;8.30;99.90;;;;;;4949316;29;20047;-78
2023/04/25 07:05:55;;;;;;;11.60;6.55;;;8.20;99.90;;;;;;4947859;29;20046;-78
2023/04/25 07:08:23;;;;;;;16.63;7.75;;;8.20;99.90;;;;;;4935851;29;20051;-79
2023/04/25 07:10:49;;;;;;;17.52;6.63;;;8.10;99.90;;;;;;4951724;29;20031;-78
2023/04/25 07:13:15;;;;;;;18.77;5.80;;;8.20;99.90;;;;;;4951994;29;20046;-79
2023/04/25 07:15:43;;;;;;;11.55;6.68;;;8.20;99.90;;;;;;4930353;29;20070;-79
2023/04/25 07:18:10;;;;;;;12.68;6.28;;;8.00;99.90;;;;;;4931761;29;20043;-79
2023/04/25 07:20:36;;;;;;;13.20;6.25;;;7.80;99.90;;;;;;4950646;29;20039;-79
2023/04/25 07:23:03;;;;;;;16.77;7.57;;;7.80;99.90;;;;;;4935394;29;20043;-80
2023/04/25 07:25:30;;;;;;;12.70;7.22;;;7.80;99.90;;;;;;4952277;28;20166;-78
2023/04/25 07:27:57;;;;;;;16.88;6.57;;;7.90;99.90;;;;;;4952107;29;20039;-78
2023/04/25 07:30:23;;;;;;;15.25;7.65;;;7.90;99.90;;;;;;4941007;29;20385;-78
2023/04/25 07:32:50;;;;;;;13.02;6.95;;;8.00;99.90;;;;;;4937811;29;20028;-79
2023/04/25 07:35:17;;;;;;;22.58;7.65;;;7.90;99.90;;;;;;4938759;29;20039;-78
2023/04/25 07:37:43;;;;;;;20.20;7.95;;;7.90;99.90;;;;;;4942839;29;20052;-78
2023/04/25 07:40:15;;;;;;;14.85;7.70;;;8.00;99.90;;;;;;4942975;29;20043;-78
2023/04/25 07:42:45;;;;;;;10.73;5.95;;;8.10;99.90;;;;;;4956842;28;20058;-78
2023/04/25 07:45:16;;;;;;;11.88;6.30;;;8.20;99.90;;;;;;4936511;29;20051;-78
2023/04/25 07:47:43;;;;;;;13.32;5.55;;;8.40;99.90;;;;;;4917238;29;20043;-80
2023/04/25 07:50:10;;;;;;;15.93;6.30;;;8.40;99.90;;;;;;4948670;28;20043;-80
2023/04/25 07:52:37;;;;;;;11.55;5.32;;;8.40;99.90;;;;;;4939390;29;20058;-80
2023/04/25 07:55:19;;;;;;;13.02;5.57;;;8.50;99.90;;;;;;4938438;29;20050;-80
2023/04/25 07:57:57;;;;;;;11.07;4.80;;;8.80;99.90;;;;;;4934292;29;20043;-79
2023/04/25 08:00:23;;;;;;;13.07;5.45;;;9.00;99.90;;;;;;4936792;29;20046;-80
2023/04/25 08:02:56;;;;;;;10.57;4.13;;;9.40;99.90;;;;;;4951264;29;20491;-82
2023/04/25 08:05:22;;;;;;;12.60;5.43;;;9.40;71.10;;;;;;4933507;29;20048;-80
2023/04/25 08:07:54;;;;;;;12.77;4.70;;;9.30;92.30;;;;;;4931298;29;20056;-80
2023/04/25 08:10:20;;;;;;;10.50;5.07;;;9.30;95.10;;;;;;4951690;29;20051;-82
2023/04/25 08:12:48;;;;;;;11.18;4.97;;;9.40;64.70;;;;;;4919153;29;20048;-80
2023/04/25 08:15:15;;;;;;;10.63;5.03;;;9.40;47.70;;;;;;4938549;29;20043;-81
2023/04/25 08:17:43;;;;;;;10.02;4.75;;;9.60;76.00;;;;;;4953702;29;20043;-81
2023/04/25 08:20:10;;;;;;;9.13;5.05;;;10.00;53.00;;;;;;4936302;29;20044;-82
2023/04/25 08:22:37;;;;;;;9.98;4.45;;;9.80;30.80;;;;;;4938593;29;20043;-80
2023/04/25 08:25:22;;;;;;;8.80;4.35;;;9.60;9.80;;;;;;4932870;29;20054;-78
2023/04/25 08:27:49;;;;;;;11.68;4.72;;;9.40;1.00;;;;;;4935930;29;20054;-78
2023/04/25 08:30:18;;;;;;;10.50;5.00;;;9.70;11.70;;;;;;4949549;29;20048;-77
2023/04/25 08:32:45;;;;;;;7.45;3.58;;;9.90;15.20;;;;;;4948375;29;20044;-76
2023/04/25 08:35:30;;;;;;;11.05;4.78;;;10.20;11.50;;;;;;4952144;29;20353;-77
2023/04/25 08:37:56;;;;;;;10.38;5.72;;;10.00;7.10;;;;;;4952573;29;20050;-76
2023/04/25 08:40:29;;;;;;;12.00;4.90;;;9.90;2.80;;;;;;4937576;29;20050;-77
2023/04/25 08:43:03;;;;;;;8.38;4.43;;;10.10;1.00;;;;;;4951459;29;20058;-76
2023/04/25 08:45:33;;;;;;;6.50;3.75;;;10.40;1.00;;;;;;4955098;29;20040;-77
2023/04/25 08:48:00;;;;;;;12.13;4.95;;;10.70;1.00;;;;;;4934429;29;20055;-79
2023/04/25 08:50:27;;;;;;;8.68;3.88;;;11.20;1.00;;;;;;4955205;29;20039;-79
2023/04/25 08:52:55;;;;;;;12.00;4.40;;;11.10;1.00;;;;;;4938501;29;20046;-77
2023/04/25 08:55:21;;;;;;;9.18;4.47;;;11.70;1.00;;;;;;4934830;29;20412;-77
2023/04/25 08:57:53;;;;;;;14.48;5.18;;;11.40;1.00;;;;;;4938521;29;20050;-78
2023/04/25 09:00:19;;;;;;;9.43;4.53;;;11.80;1.00;;;;;;4954302;29;20043;-78
2023/04/25 09:02:47;;;;;;;9.35;4.78;;;12.30;1.00;;;;;;4936976;29;20051;-78
2023/04/25 09:05:14;;;;;;;11.05;4.80;;;11.80;1.00;;;;;;4937348;29;20047;-74
2023/04/25 09:07:40;;;;;;;8.60;5.15;;;11.20;1.00;;;;;;4950218;29;20055;-81
2023/04/25 09:10:07;;;;;;;11.05;4.22;;;10.40;1.00;;;;;;4950599;29;20058;-83
2023/04/25 09:12:37;;;;;;;7.30;4.07;;;10.40;1.00;;;;;;4952976;29;20039;-80
2023/04/25 09:15:05;;;;;;;11.15;4.45;;;10.30;1.00;;;;;;4933223;29;20047;-81
2023/04/25 09:18:01;;;;;;;10.15;4.25;;;10.40;1.00;;;;;;4938217;29;20058;-81
2023/04/25 09:20:40;;;;;;;8.65;4.18;;;10.70;1.00;;;;;;4951311;29;20043;-80
2023/04/25 09:23:07;;;;;;;9.30;4.57;;;10.70;1.00;;;;;;4931111;29;20054;-80
2023/04/25 09:25:38;;;;;;;10.65;4.85;;;10.90;1.00;;;;;;4932073;29;20054;-80
2023/04/25 09:28:06;;;;;;;;;;;10.70;1.00;;;;;;4920145;29;20050;-81
2023/04/25 09:30:36;;;;;;;15.57;5.55;;;10.40;1.00;;;;;;4936806;29;19913;-79
2023/04/25 09:33:36;;;;;;;10.40;4.40;;;10.40;1.00;;;;;;4952628;29;20054;-80
2023/04/25 09:36:06;;;;;;;11.07;4.80;;;10.50;1.00;;;;;;4948537;29;20253;-81
2023/04/25 09:39:00;;;;;;;8.70;4.10;;;10.50;1.00;;;;;;4948964;29;20039;-81
2023/04/25 09:41:37;;;;;;;12.60;4.57;;;10.60;1.00;;;;;;4950885;29;20047;-80
2023/04/25 09:44:04;;;;;;;8.40;4.45;;;10.60;1.00;;;;;;4937912;29;20247;-79
2023/04/25 09:46:36;;;;;;;10.18;3.90;;;10.60;1.00;;;;;;4939862;29;20396;-82
2023/04/25 09:49:07;;;;;;;11.10;4.47;;;10.50;1.00;;;;;;4912324;29;20070;-83
2023/04/25 09:51:41;;;;;;;12.35;4.22;;;10.30;1.00;;;;;;4951632;29;20047;-80
2023/04/25 09:54:10;;;;;;;10.10;4.65;;;10.40;1.00;;;;;;4951431;29;20062;-83
2023/04/25 09:56:51;;;;;;;8.52;4.28;;;10.60;1.00;;;;;;4945353;29;20408;-82
2023/04/25 09:59:20;;;;;;;8.68;5.32;;;10.80;1.00;;;;;;4951216;29;20050;-81
2023/04/25 10:01:49;;;;;;;10.75;4.07;;;11.30;1.00;;;;;;4936539;29;20035;-82
2023/04/25 10:04:27;;;;;;;9.23;5.00;;;11.20;1.00;;;;;;4935765;29;20049;-82
2023/04/25 10:07:07;;;;;;;5.68;3.70;;;11.50;1.00;;;;;;4948028;29;20069;-83
2023/04/25 10:09:36;;;;;;;10.38;4.47;;;11.60;1.00;;;;;;4955392;29;20035;-80
2023/04/25 10:12:03;;;;;;;10.70;5.60;;;11.90;1.00;;;;;;4950844;29;20039;-83
2023/04/25 10:14:33;;;;;;;10.05;4.45;;;12.00;1.00;;;;;;4949879;28;20470;-83
2023/04/25 10:17:00;;;;;;;9.68;4.38;;;12.10;1.00;;;;;;4953670;29;20035;-81
2023/04/25 10:19:29;;;;;;;8.65;4.20;;;11.50;1.00;;;;;;4951786;29;20031;-81
2023/04/25 10:22:07;;;;;;;9.40;4.38;;;11.40;1.00;;;;;;4936781;29;20424;-83
2023/04/25 10:24:37;;;;;;;10.02;4.80;;;11.40;1.00;;;;;;4951342;29;20070;-82
2023/04/25 10:27:05;;;;;;;8.38;3.95;;;11.30;1.00;;;;;;4953761;29;20499;-81
2023/04/25 10:29:31;;;;;;;7.90;4.05;;;11.30;1.00;;;;;;4952751;29;20036;-81
2023/04/25 10:31:57;;;;;;;5.90;3.78;;;11.20;1.00;;;;;;4952463;29;20038;-82
2023/04/25 10:34:38;;;;;;;8.45;3.95;;;11.10;1.00;;;;;;4952800;29;20047;-81
2023/04/25 10:37:04;;;;;;;5.82;3.42;;;11.50;1.00;;;;;;4950884;29;20043;-80
2023/04/25 10:39:32;;;;;;;7.35;3.72;;;11.40;1.00;;;;;;4951268;29;20039;-82
2023/04/25 10:42:02;;;;;;;10.27;4.10;;;11.20;1.00;;;;;;4935955;29;20034;-80
2023/04/25 10:44:32;;;;;;;7.13;3.42;;;11.60;1.00;;;;;;4935646;29;20044;-85
2023/04/25 10:47:00;;;;;;;8.83;3.57;;;11.50;1.00;;;;;;4954176;29;20035;-85
2023/04/25 10:49:31;;;;;;;8.32;3.17;;;11.30;1.00;;;;;;4953471;29;20283;-81
2023/04/25 10:52:19;;;;;;;5.03;2.97;;;10.90;1.00;;;;;;4952571;29;20042;-81
2023/04/25 10:54:52;;;;;;;4.88;3.35;;;10.90;1.00;;;;;;4948253;29;20040;-82
2023/04/25 10:57:48;;;;;;;5.82;3.05;;;10.70;1.00;;;;;;4931796;29;20031;-82
2023/04/25 11:00:16;;;;;;;9.40;3.22;;;10.80;1.00;;;;;;4940285;29;20042;-83
2023/04/25 11:02:57;;;;;;;4.47;2.45;;;10.70;1.00;;;;;;4936554;29;20051;-79
2023/04/25 11:05:32;;;;;;;5.28;2.70;;;10.70;1.00;;;;;;4944238;29;20078;-84
2023/04/25 11:07:59;;;;;;;5.72;2.53;;;10.90;1.00;;;;;;4935526;29;20062;-82
2023/04/25 11:10:37;;;;;;;4.50;2.30;;;10.90;1.00;;;;;;4950801;29;20035;-81
2023/04/25 11:13:04;;;;;;;4.32;2.15;;;10.80;1.00;;;;;;4920578;29;20062;-83
2023/04/25 11:15:30;;;;;;;5.38;2.10;;;10.90;1.00;;;;;;4949682;29;20035;-84
2023/04/25 11:17:56;;;;;;;5.72;2.50;;;11.00;1.00;;;;;;4950413;29;20031;-82
2023/04/25 11:20:26;;;;;;;6.43;2.58;;;11.00;1.00;;;;;;4951059;29;20050;-82
2023/04/25 11:22:52;;;;;;;10.40;3.00;;;10.90;1.00;;;;;;4950912;29;20042;-80
2023/04/25 11:25:18;;;;;;;5.20;2.38;;;11.10;1.00;;;;;;4950493;29;20035;-81
2023/04/25 11:27:58;;;;;;;7.40;2.47;;;11.30;1.00;;;;;;4952108;29;20035;-76
2023/04/25 11:30:25;;;;;;;6.60;2.80;;;11.10;1.00;;;;;;4952042;29;20384;-79
2023/04/25 11:32:52;;;;;;;9.23;3.25;;;11.20;1.00;;;;;;4952215;29;20483;-80
2023/04/25 11:35:20;;;;;;;4.82;2.85;;;11.70;1.00;;;;;;4948947;29;20515;-80
2023/04/25 11:37:47;;;;;;;4.50;2.30;;;11.50;1.00;;;;;;4950352;29;20039;-80
2023/04/25 11:40:13;;;;;;;5.65;3.10;;;11.50;1.00;;;;;;4949873;29;20035;-81
2023/04/25 11:42:43;;;;;;;5.50;2.55;;;12.00;1.00;;;;;;4960751;29;20047;-81
2023/04/25 11:45:10;;;;;;;6.85;2.65;;;11.50;1.00;;;;;;4949451;29;20043;-79
2023/04/25 11:47:37;;;;;;;3.58;2.75;;;11.80;1.00;;;;;;4951451;29;20044;-79
2023/04/25 11:50:05;;;;;;;5.70;2.70;;;11.70;1.00;;;;;;4951412;29;20040;-78
2023/04/25 11:52:41;;;;;;;6.85;3.00;;;11.90;1.00;;;;;;4951742;29;20394;-81
2023/04/25 11:55:16;;;;;;;4.97;2.90;;;11.90;1.00;;;;;;4947139;29;20038;-80
2023/04/25 11:57:43;;;;;;;5.40;2.95;;;11.90;1.00;;;;;;4935852;29;20031;-80
2023/04/25 12:00:15;;;;;;;6.07;2.30;;;12.00;1.00;;;;;;4951418;29;20453;-80
2023/04/25 12:02:51;;;;;;;6.38;2.70;;;11.80;1.00;;;;;;4938671;29;20047;-78
2023/04/25 12:05:18;;;;;;;7.65;3.47;;;11.60;1.00;;;;;;4951657;29;20043;-79
2023/04/25 12:07:44;;;;;;;9.52;3.33;;;11.70;1.00;;;;;;4943948;29;20150;-79
2023/04/25 12:10:12;;;;;;;7.43;4.97;;;11.50;1.00;;;;;;4932230;29;20036;-81
2023/04/25 12:12:43;;;;;;;4.63;3.20;;;11.60;1.00;;;;;;4934123;29;20051;-80
2023/04/25 12:15:25;;;;;;;8.48;3.25;;;11.60;1.00;;;;;;4930141;29;20035;-79
2023/04/25 12:17:54;;;;;;;8.00;4.05;;;11.70;1.00;;;;;;4914865;29;20031;-81
2023/04/25 12:20:24;;;;;;;5.75;3.50;;;11.60;1.00;;;;;;4928534;29;20401;-78
2023/04/25 12:22:51;;;;;;;5.85;3.70;;;11.40;1.00;;;;;;4919367;29;20051;-80
2023/04/25 12:25:37;;;;;;;6.10;3.85;;;11.30;1.00;;;;;;4931236;29;20481;-81
2023/04/25 12:28:19;;;;;;;7.22;4.25;;;11.30;1.00;;;;;;4912429;29;20068;-82
2023/04/25 12:31:04;;;;;;;6.15;2.95;;;11.50;1.00;;;;;;4930678;29;20039;-82
2023/04/25 12:33:35;;;;;;;7.80;4.13;;;11.60;1.00;;;;;;4930602;29;20068;-83
2023/04/25 12:36:08;;;;;;;5.63;3.88;;;11.30;1.00;;;;;;4926917;29;20047;-82
2023/04/25 12:38:41;;;;;;;5.65;3.10;;;11.40;1.00;;;;;;4912570;29;20047;-81
2023/04/25 12:41:08;;;;;;;6.47;3.42;;;11.50;1.00;;;;;;4913264;29;20048;-81
2023/04/25 12:43:35;;;;;;;4.80;3.25;;;11.40;1.00;;;;;;4935809;29;20070;-79
2023/04/25 12:46:01;;;;;;;8.98;4.13;;;11.50;1.00;;;;;;4935541;29;20039;-83
2023/04/25 12:48:27;;;;;;;6.60;3.75;;;11.60;1.00;;;;;;4937090;29;20032;-80
2023/04/25 12:50:53;;;;;;;9.43;4.40;;;11.60;1.00;;;;;;4938163;29;20028;-82
2023/04/25 12:53:22;;;;;;;9.63;3.85;;;11.90;1.00;;;;;;4936353;29;20487;-78
2023/04/25 12:55:48;;;;;;;7.43;4.10;;;12.20;1.00;;;;;;4922410;29;20034;-82
2023/04/25 12:58:15;;;;;;;7.28;3.25;;;12.10;1.00;;;;;;4937540;29;20385;-79
2023/04/25 13:00:42;;;;;;;5.68;3.72;;;12.10;1.00;;;;;;4933784;29;20027;-81
2023/04/25 13:03:10;;;;;;;6.65;3.35;;;12.60;1.00;;;;;;4933587;29;20044;-81
2023/04/25 13:05:37;;;;;;;9.73;3.95;;;12.90;1.00;;;;;;4932944;29;20036;-79
2023/04/25 13:08:04;;;;;;;5.47;3.53;;;12.60;1.00;;;;;;4928098;29;20059;-80
2023/04/25 13:10:30;;;;;;;6.82;4.18;;;12.30;1.00;;;;;;4945709;29;20406;-81
2023/04/25 13:12:57;;;;;;;6.85;3.97;;;11.80;1.00;;;;;;4944280;29;20040;-81
2023/04/25 13:15:23;;;;;;;10.15;4.57;;;11.80;1.00;;;;;;4934668;29;20043;-83
2023/04/25 13:17:49;;;;;;;6.53;3.35;;;11.80;1.00;;;;;;4935647;29;20039;-83